Latest Weather Observations for Cape Byron

IDN60801

Issued at 6:05 pm EST Wednesday 23 April 2014 (issued every 30 minutes, with the page automatically refreshed every 10 minutes)

About weather observations | Map of weather stations | Latest weather observations for NSW | Other Formats
Station Details ID: 058216 Name: CAPE BYRON AWS Lat: -28.64 Lon: 153.64 Height: 95.0 m
Data from the previous 72 hours. | See also: Recent months at Cape Byron
Date/Time
EST
Temp
°C
App
Temp
°C
Dew
Point
Rel
Hum
%
Delta-T
°C
Wind Press
QNH
hPa
Press
MSL
hPa
Rain
since 9 am
mm
Dir
 
Spd
km/h
Gust
km/h
Spd
kts
Gust
kts
23/06:00pm 23.2 22.6 18.9 77 2.7 NNE 20 28 11 15 1016.9 1016.5 0.0
23/05:30pm 23.4 23.0 18.9 76 2.9 NNE 19 28 10 15 1016.5 - 0.0
23/05:00pm 23.7 23.2 18.6 73 3.2 NNE 19 28 10 15 1016.5 - 0.0
23/04:30pm 24.1 23.8 18.3 70 3.7 NNE 17 26 9 14 1016.4 - 0.0
23/04:00pm 24.8 23.9 17.8 65 4.4 NNE 19 28 10 15 1016.4 - 0.0
23/03:30pm 25.0 24.8 18.4 66 4.2 NNE 17 24 9 13 1016.3 - 0.0
23/03:00pm 25.2 24.5 17.4 62 4.9 NNE 17 28 9 15 1016.3 1016.0 0.0
23/02:30pm 25.4 24.4 17.6 62 4.9 NNE 19 26 10 14 1016.4 - 0.0
23/02:00pm 25.6 25.0 18.5 65 4.5 NNE 19 26 10 14 1016.5 - 0.0
23/01:30pm 26.3 25.1 17.1 57 5.8 NNE 19 24 10 13 1016.6 - 0.0
23/01:00pm 26.6 27.0 19.0 63 4.9 NNE 15 24 8 13 1017.0 - 0.0
23/12:30pm 27.0 27.2 20.1 66 4.5 NE 19 22 10 12 1017.4 - 0.0
23/12:00pm 26.2 27.2 20.3 70 3.9 NE 15 17 8 9 1017.8 1017.4 0.0
23/11:30am 25.7 27.1 19.6 69 4.0 NNE 11 15 6 8 1018.4 - 0.0
23/11:00am 25.1 26.9 19.5 71 3.6 N 9 13 5 7 1018.9 - 0.0
23/10:30am 24.6 26.8 19.7 74 3.2 N 7 11 4 6 1019.3 - 0.0
23/10:00am 23.7 25.6 19.0 75 3.0 N 7 9 4 5 1019.5 - 0.0
23/09:30am 23.3 25.3 18.8 76 2.9 N 6 9 3 5 1019.8 - 0.0
23/09:00am 22.5 23.8 18.5 78 2.5 N 9 13 5 7 1020.0 1019.6 0.0
23/08:30am 22.0 23.6 18.2 79 2.4 N 7 11 4 6 1020.0 - 0.0
23/08:00am 20.8 21.3 17.4 81 2.1 N 11 15 6 8 1019.9 - 0.0
23/07:30am 19.7 20.3 16.7 83 1.8 NNW 9 13 5 7 1019.8 - 0.0
23/07:00am 18.3 19.4 17.1 93 0.7 NNW 7 9 4 5 1019.6 - 0.0
23/06:30am 18.4 19.8 17.8 96 0.4 NNW 7 11 4 6 1019.4 - 0.0
23/06:00am 18.0 18.6 16.7 92 0.8 NW 9 13 5 7 1019.0 1018.6 0.0
23/05:30am 18.2 18.5 16.0 87 1.3 NNW 9 13 5 7 1018.9 - 0.0
23/05:00am 19.3 20.5 17.3 88 1.2 NW 7 11 4 6 1018.8 - 0.0
23/04:30am 20.4 21.2 18.2 87 1.4 NNW 11 20 6 11 1018.5 - 0.0
23/04:00am 20.5 21.0 18.3 87 1.4 N 13 20 7 11 1018.2 - 0.0
23/03:30am 20.2 20.2 18.0 87 1.4 N 15 22 8 12 1018.4 - 0.0
23/03:00am 19.3 19.6 16.9 86 1.5 NNW 11 15 6 8 1018.3 1017.9 0.0
23/02:30am 20.3 21.4 18.1 87 1.4 NNW 9 17 5 9 1018.6 - 0.0
23/02:00am 21.0 21.0 18.2 84 1.7 N 15 20 8 11 1018.6 - 0.0
23/01:30am 21.1 21.2 18.3 84 1.8 NNW 15 20 8 11 1018.7 - 0.0
23/01:00am 21.2 21.5 18.8 86 1.5 N 15 26 8 14 1018.9 - 0.0
23/12:30am 21.2 20.7 18.6 85 1.6 N 19 26 10 14 1018.9 - 0.0
23/12:00am 21.2 21.0 18.4 84 1.8 N 17 26 9 14 1018.9 1018.5 0.0
 
Date/Time
EST
Temp
°C
App
Temp
°C
Dew
Point
Rel
Hum
%
Delta-T
°C
Wind Press
QNH
hPa
Press
MSL
hPa
Rain
since 9 am
mm
Dir
 
Spd
km/h
Gust
km/h
Spd
kts
Gust
kts
22/11:30pm 21.4 20.8 18.4 83 1.9 N 19 26 10 14 1019.2 - 0.0
22/11:00pm 21.4 20.7 18.6 84 1.8 N 20 28 11 15 1019.5 - 0.0
22/10:30pm 21.4 21.4 19.0 86 1.5 N 17 24 9 13 1019.5 - 0.0
22/10:00pm 21.5 21.6 19.1 86 1.5 N 17 26 9 14 1019.7 - 0.0
22/09:30pm 21.5 22.3 19.8 90 1.1 N 15 20 8 11 1019.7 - 0.0
22/09:00pm 21.9 22.0 20.0 89 1.2 N 19 26 10 14 1019.7 1019.3 0.0
22/08:30pm 22.4 22.6 20.5 89 1.2 N 20 26 11 14 1019.9 - 0.0
22/08:00pm 22.7 21.5 19.3 81 2.2 N 24 33 13 18 1019.8 - 0.0
22/07:30pm 22.7 21.4 19.1 80 2.3 N 24 32 13 17 1019.6 - 0.0
22/07:00pm 22.7 21.3 18.9 79 2.4 N 24 32 13 17 1019.6 - 0.0
22/06:30pm 22.8 22.0 19.2 80 2.3 NNE 22 32 12 17 1019.4 - 0.0
22/06:00pm 22.8 21.4 18.8 78 2.5 N 24 33 13 18 1019.2 1018.8 0.0
22/05:30pm 22.9 21.5 18.7 77 2.7 N 24 32 13 17 1019.2 - 0.0
22/05:00pm 23.2 22.2 18.9 77 2.7 NNE 22 39 12 21 1019.0 - 0.0
22/04:30pm 23.5 22.9 18.8 75 3.0 NNE 20 33 11 18 1018.9 - 0.0
22/04:00pm 23.9 23.4 19.2 75 3.0 NNE 20 32 11 17 1018.8 - 0.0
22/03:30pm 23.9 22.9 18.8 73 3.2 NNE 22 35 12 19 1018.8 - 0.0
22/03:00pm 24.4 23.4 18.8 71 3.6 NNE 22 35 12 19 1019.1 1018.7 0.0
22/02:30pm 24.3 22.6 18.9 72 3.4 NNE 26 35 14 19 1018.9 - 0.0
22/02:00pm 24.3 22.9 18.9 72 3.4 NNE 24 35 13 19 1018.8 - 0.0
22/01:30pm 24.4 22.9 18.6 70 3.7 NNE 24 33 13 18 1019.1 - 0.0
22/01:00pm 24.8 23.7 18.7 69 3.9 NNE 22 30 12 16 1019.3 - 0.0
22/12:30pm 25.1 23.7 18.8 68 4.0 NNE 24 35 13 19 1019.9 - 0.0
22/12:00pm 25.6 24.6 18.8 66 4.3 N 22 32 12 17 1020.8 1020.4 0.0
22/11:30am 25.8 25.9 19.2 67 4.3 N 17 24 9 13 1021.0 - 0.0
22/11:00am 25.5 25.8 19.6 70 3.8 N 17 24 9 13 1021.1 - 0.0
22/10:30am 24.9 24.7 19.3 71 3.6 N 19 26 10 14 1021.4 - 0.0
22/10:00am 24.4 24.0 19.0 72 3.5 N 19 26 10 14 1021.7 - 0.0
22/09:30am 24.2 25.4 19.9 77 2.8 N 13 17 7 9 1022.0 - 0.0
22/09:00am 23.3 24.8 19.7 80 2.3 N 11 19 6 10 1022.2 1021.8 0.0
22/08:30am 22.7 24.0 19.3 81 2.2 N 11 15 6 8 1022.1 - 0.0
22/08:00am 21.8 23.4 19.2 85 1.7 N 9 13 5 7 1021.9 - 0.0
22/07:30am 21.1 22.7 19.2 89 1.2 N 9 13 5 7 1021.7 - 0.0
22/07:00am 20.4 21.8 18.7 90 1.1 N 9 13 5 7 1021.5 - 0.0
22/06:30am 20.8 22.8 19.1 90 1.1 NW 7 13 4 7 1021.3 - 0.0
22/06:00am 21.0 22.1 18.9 88 1.3 N 11 15 6 8 1021.1 1020.7 0.0
22/05:30am 21.2 22.4 19.1 88 1.3 N 11 17 6 9 1020.8 - 0.0
22/05:00am 21.1 21.8 18.9 87 1.4 N 13 20 7 11 1020.6 - 0.0
22/04:30am 21.1 22.3 19.0 88 1.3 N 11 17 6 9 1020.4 - 0.0
22/04:00am 21.3 21.7 19.0 87 1.5 N 15 22 8 12 1020.2 - 0.0
22/03:30am 21.3 21.9 19.4 89 1.2 N 15 24 8 13 1019.9 - 0.0
22/03:00am 21.5 21.8 19.6 89 1.2 N 17 28 9 15 1019.8 1019.4 0.0
22/02:30am 21.5 21.5 19.8 90 1.1 N 19 26 10 14 1020.0 - 0.0
22/02:00am 21.4 21.7 19.5 89 1.2 N 17 26 9 14 1020.0 - 0.0
22/01:30am 21.7 21.6 20.0 90 1.1 N 20 30 11 16 1020.1 - 0.0
22/01:00am 21.6 21.7 19.9 90 1.1 N 19 33 10 18 1020.3 - 0.0
22/12:30am 21.7 22.0 20.3 92 0.9 N 19 28 10 15 1020.5 - 0.0
22/12:00am 21.8 22.1 20.4 92 0.9 N 19 28 10 15 1020.5 1020.1 0.0
 
Date/Time
EST
Temp
°C
App
Temp
°C
Dew
Point
Rel
Hum
%
Delta-T
°C
Wind Press
QNH
hPa
Press
MSL
hPa
Rain
since 9 am
mm
Dir
 
Spd
km/h
Gust
km/h
Spd
kts
Gust
kts
21/11:30pm 21.8 22.0 20.6 93 0.8 N 20 30 11 16 1020.6 - 0.0
21/11:00pm 21.9 22.4 20.9 94 0.7 N 19 28 10 15 1020.8 - 0.0
21/10:30pm 22.0 23.1 21.2 95 0.5 N 17 26 9 14 1021.0 - 0.0
21/10:00pm 22.0 22.5 20.8 93 0.8 N 19 26 10 14 1020.8 - 0.0
21/09:30pm 22.1 23.1 21.1 94 0.7 N 17 24 9 13 1020.8 - 0.0
21/09:00pm 22.6 23.4 21.4 93 0.8 N 19 28 10 15 1020.7 1020.3 0.0
21/08:30pm 23.1 22.3 20.8 87 1.5 N 26 37 14 20 1020.5 - 0.0
21/08:00pm 23.1 21.7 20.4 85 1.8 N 28 41 15 22 1020.3 - 0.0
21/07:30pm 23.3 21.4 20.2 83 2.0 N 30 39 16 21 1020.0 - 0.0
21/07:00pm 23.4 21.4 20.0 81 2.2 N 30 39 16 21 1019.8 - 0.0
21/06:30pm 23.4 22.2 20.0 81 2.2 N 26 37 14 20 1019.5 - 0.0
21/06:00pm 23.5 22.3 20.0 81 2.3 N 26 35 14 19 1019.1 1018.7 0.0
21/05:30pm 23.7 22.9 20.0 80 2.4 NNE 24 33 13 18 1018.9 - 0.0
21/05:00pm 24.0 22.8 20.1 79 2.5 NNE 26 39 14 21 1018.6 - 0.0
21/04:30pm 24.3 23.2 20.2 78 2.7 NNE 26 39 14 21 1018.3 - 0.0
21/04:00pm 24.5 23.5 20.4 78 2.7 NNE 26 39 14 21 1018.1 - 0.0
21/03:30pm 24.9 24.2 21.0 79 2.6 NNE 26 39 14 21 1018.1 - 0.0
21/03:00pm 25.0 24.2 20.9 78 2.7 NNE 26 35 14 19 1018.0 1017.6 0.0
21/02:30pm 25.3 25.5 20.5 75 3.1 NNE 20 32 11 17 1018.2 - 0.0
21/02:00pm 25.6 25.7 21.1 76 3.0 NNE 22 32 12 17 1018.4 - 0.0
21/01:30pm 25.7 26.5 21.4 77 2.9 NNE 19 28 10 15 1018.6 - 0.0
21/01:00pm 25.7 26.2 20.9 75 3.2 NNE 19 28 10 15 1019.0 - 0.0
21/12:30pm 25.7 26.3 21.1 76 3.0 NNE 19 24 10 13 1019.4 - 0.0
21/12:00pm 26.3 27.8 21.3 74 3.3 N 15 26 8 14 1019.8 1019.4 0.0
21/11:30am 26.6 28.4 20.4 69 4.1 NNE 11 17 6 9 1020.2 - 0.0
21/11:00am 25.3 27.2 19.7 71 3.6 N 9 15 5 8 1020.6 - 0.0
21/10:30am 24.7 26.4 19.3 72 3.5 N 9 15 5 8 1020.8 - 0.0
21/10:00am 24.0 25.6 19.1 74 3.1 N 9 13 5 7 1021.1 - 0.0
21/09:30am 23.3 25.0 18.6 75 3.0 N 7 11 4 6 1021.2 - 0.0
21/09:00am 22.7 24.3 18.3 76 2.8 N 7 11 4 6 1021.2 1020.8 0.0
21/08:30am 22.1 23.9 18.7 81 2.1 N 7 11 4 6 1021.1 - 0.0
21/08:00am 21.5 23.1 19.2 87 1.5 N 9 11 5 6 1020.9 - 0.0
21/07:30am 21.0 22.9 19.8 93 0.8 N 9 11 5 6 1020.6 - 0.0
21/07:00am 20.5 21.9 19.5 94 0.6 N 11 17 6 9 1020.2 - 0.0
21/06:30am 20.7 22.9 19.5 93 0.8 NE 7 15 4 8 1019.8 - 0.0
21/06:00am 21.0 22.0 19.5 91 1.0 NNW 13 20 7 11 1019.4 1019.0 0.0
21/05:30am 21.0 21.2 19.3 90 1.1 N 17 22 9 12 1019.1 - 0.0
21/05:00am 20.9 21.9 19.4 91 1.0 NNW 13 17 7 9 1018.9 - 0.0
21/04:30am 21.4 22.2 19.0 86 1.5 NNW 13 26 7 14 1018.6 - 0.0
21/04:00am 21.5 21.9 18.9 85 1.6 NNW 15 22 8 12 1018.4 - 0.0
21/03:30am 21.3 22.0 18.9 86 1.5 NNW 13 19 7 10 1018.1 - 0.0
21/03:00am 21.1 22.3 19.0 88 1.3 NNW 11 20 6 11 1018.1 1017.7 0.0
21/02:30am 20.8 22.3 18.9 89 1.2 NNW 9 19 5 10 1018.1 - 0.0
21/02:00am 21.1 22.2 18.9 87 1.4 N 11 19 6 10 1018.3 - 0.0
21/01:30am 21.3 22.2 19.2 88 1.3 NNW 13 22 7 12 1018.4 - 0.0
21/01:00am 21.0 22.5 19.8 93 0.8 NNW 11 22 6 12 1018.5 - 0.0
21/12:30am 21.1 23.4 19.9 93 0.8 NE 7 11 4 6 1018.6 - 0.0
21/12:00am 21.3 23.6 19.9 92 0.9 N 7 15 4 8 1018.6 1018.2 0.0
 
Date/Time
EST
Temp
°C
App
Temp
°C
Dew
Point
Rel
Hum
%
Delta-T
°C
Wind Press
QNH
hPa
Press
MSL
hPa
Rain
since 9 am
mm
Dir
 
Spd
km/h
Gust
km/h
Spd
kts
Gust
kts
20/11:30pm 21.4 23.4 20.0 92 0.9 N 9 20 5 11 1018.7 - 0.0
20/11:00pm 21.3 22.7 19.6 90 1.1 N 11 17 6 9 1018.7 - 0.0
20/10:30pm 21.8 23.0 19.9 89 1.2 N 13 22 7 12 1018.8 - 0.0
20/10:00pm 22.1 23.1 20.2 89 1.2 N 15 22 8 12 1018.7 - 0.0
20/09:30pm 22.2 23.6 20.3 89 1.2 N 13 20 7 11 1018.7 - 0.0
20/09:00pm 22.4 23.2 19.9 86 1.6 N 15 20 8 11 1018.5 1018.1 0.0
20/08:30pm 23.0 21.2 17.9 73 3.2 N 24 33 13 18 1018.4 - 0.0
20/08:00pm 23.0 21.8 18.3 75 3.0 N 22 30 12 16 1018.4 - 0.0
20/07:30pm 23.0 21.8 18.3 75 3.0 NNE 22 28 12 15 1018.2 - 0.0
20/07:00pm 22.9 22.0 18.2 75 3.0 NNE 20 28 11 15 1017.9 - 0.0
20/06:30pm 23.0 22.4 18.5 76 2.8 NNE 19 32 10 17 1017.8 - 0.0

Other Formats:

Comma delimited format used in spreadsheet applications
http://www.bom.gov.au/fwo/IDN60801/IDN60801.94599.axf

JavaScript Object Notation format (JSON) in row-major order
http://www.bom.gov.au/fwo/IDN60801/IDN60801.94599.json